createdAt,value
2018-05-25T00:00:49.698Z,20.60
2018-05-25T00:03:18.021Z,20.60
2018-05-25T00:05:46.332Z,20.60
2018-05-25T00:08:14.666Z,20.60
2018-05-25T00:10:43.118Z,20.50
2018-05-25T00:13:11.423Z,20.50
2018-05-25T00:15:39.827Z,20.40
2018-05-25T00:18:08.149Z,20.40
2018-05-25T00:20:36.646Z,20.30
2018-05-25T00:23:05.051Z,20.30
2018-05-25T00:25:33.353Z,20.30
2018-05-25T00:28:01.706Z,20.20
2018-05-25T00:30:29.988Z,20.10
2018-05-25T00:32:59.237Z,20.10
2018-05-25T00:35:27.539Z,20.00
2018-05-25T00:37:57.861Z,20.00
2018-05-25T00:40:26.227Z,20.00
2018-05-25T00:42:54.551Z,20.10
2018-05-25T00:45:23.655Z,20.10
2018-05-25T00:47:51.998Z,20.10
2018-05-25T00:50:20.334Z,20.10
2018-05-25T00:52:49.395Z,20.10
2018-05-25T00:55:30.138Z,20.10
2018-05-25T00:57:58.449Z,20.10
2018-05-25T01:00:26.808Z,20.10
2018-05-25T01:02:55.169Z,20.10
2018-05-25T01:05:23.475Z,20.10
2018-05-25T01:07:51.799Z,20.10
2018-05-25T01:10:20.124Z,20.10
2018-05-25T01:12:49.077Z,20.10
2018-05-25T01:15:17.416Z,20.10
2018-05-25T01:17:45.712Z,20.10
2018-05-25T01:20:14.030Z,20.10
2018-05-25T01:22:42.367Z,20.10
2018-05-25T01:25:10.706Z,20.10
2018-05-25T01:27:38.993Z,20.10
2018-05-25T01:30:07.309Z,20.10
2018-05-25T01:32:35.637Z,20.00
2018-05-25T01:35:03.940Z,20.00
2018-05-25T01:37:32.285Z,20.00
2018-05-25T01:40:00.631Z,19.90
2018-05-25T01:42:32.326Z,20.00
2018-05-25T01:45:00.646Z,20.00
2018-05-25T01:47:29.698Z,19.90
2018-05-25T01:49:58.171Z,19.90
2018-05-25T01:52:44.425Z,19.90
2018-05-25T01:55:13.512Z,19.70
2018-05-25T01:57:41.825Z,19.70
2018-05-25T02:00:10.170Z,19.80
2018-05-25T02:02:38.522Z,19.80
2018-05-25T02:05:06.887Z,19.80
2018-05-25T02:07:35.215Z,19.70
2018-05-25T02:10:04.313Z,19.70
2018-05-25T02:12:33.383Z,19.70
2018-05-25T02:15:01.685Z,19.70
2018-05-25T02:17:29.985Z,19.70
2018-05-25T02:22:58.825Z,19.70
2018-05-25T02:25:27.193Z,19.70
2018-05-25T02:27:55.464Z,19.70
2018-05-25T02:30:23.741Z,19.70
2018-05-25T02:32:52.086Z,19.70
2018-05-25T02:35:20.355Z,19.70
2018-05-25T02:37:49.629Z,19.60
2018-05-25T02:40:17.935Z,19.60
2018-05-25T02:42:46.269Z,19.60
2018-05-25T02:45:14.593Z,19.60
2018-05-25T02:47:42.983Z,19.50
2018-05-25T02:50:14.624Z,19.50
2018-05-25T02:52:42.944Z,19.50
2018-05-25T02:55:11.254Z,19.50
2018-05-25T02:57:39.562Z,19.40
2018-05-25T03:00:08.488Z,19.40
2018-05-25T03:02:36.781Z,19.40
2018-05-25T03:05:05.100Z,19.40
2018-05-25T03:07:40.863Z,19.30
2018-05-25T03:10:09.192Z,19.30
2018-05-25T03:12:37.479Z,19.30
2018-05-25T03:15:05.806Z,19.20
2018-05-25T03:17:34.117Z,19.20
2018-05-25T03:20:02.443Z,19.20
2018-05-25T03:22:30.745Z,19.20
2018-05-25T03:25:00.016Z,19.20
2018-05-25T03:27:28.354Z,19.20
2018-05-25T03:29:56.657Z,19.20
2018-05-25T03:32:24.941Z,19.20
2018-05-25T03:34:53.291Z,19.20
2018-05-25T03:37:21.692Z,19.20
2018-05-25T03:39:49.981Z,19.10
2018-05-25T03:42:18.352Z,19.20
2018-05-25T03:44:46.642Z,19.20
2018-05-25T03:47:14.917Z,19.20
2018-05-25T03:49:43.237Z,19.20
2018-05-25T03:52:12.323Z,19.20
2018-05-25T03:54:40.662Z,19.20
2018-05-25T03:57:09.039Z,19.20
2018-05-25T03:59:49.343Z,19.20
2018-05-25T04:02:18.528Z,19.30
2018-05-25T04:04:46.946Z,19.20
2018-05-25T04:07:16.197Z,19.30
2018-05-25T04:09:44.581Z,19.30
2018-05-25T04:12:13.059Z,19.30
2018-05-25T04:14:41.611Z,19.40
2018-05-25T04:17:10.862Z,19.50
2018-05-25T04:19:39.299Z,19.50
2018-05-25T04:22:07.751Z,19.50
2018-05-25T04:24:36.046Z,19.60
2018-05-25T04:27:05.086Z,19.60
2018-05-25T04:29:33.369Z,19.60
2018-05-25T04:32:01.685Z,19.60
2018-05-25T04:34:30.743Z,19.50
2018-05-25T04:36:59.018Z,19.50
2018-05-25T04:39:27.410Z,19.50
2018-05-25T04:41:55.739Z,19.50
2018-05-25T04:44:24.051Z,19.50
2018-05-25T04:46:52.331Z,19.60
2018-05-25T04:49:24.007Z,19.60
2018-05-25T04:51:52.299Z,19.60
2018-05-25T04:54:20.654Z,19.40
2018-05-25T04:56:48.937Z,19.70
2018-05-25T04:59:20.386Z,19.70
2018-05-25T05:01:48.646Z,19.70
2018-05-25T05:04:17.429Z,19.80
2018-05-25T05:06:51.257Z,19.90
2018-05-25T05:09:19.573Z,20.00
2018-05-25T05:11:47.806Z,20.00
2018-05-25T05:14:16.174Z,20.10
2018-05-25T05:16:44.441Z,20.20
2018-05-25T05:19:13.339Z,20.30
2018-05-25T05:21:41.755Z,20.40
2018-05-25T05:24:10.012Z,20.50
2018-05-25T05:26:39.276Z,20.60
2018-05-25T05:29:07.558Z,20.70
2018-05-25T05:31:36.005Z,20.80
2018-05-25T05:34:05.078Z,20.80
2018-05-25T05:36:34.518Z,20.80
2018-05-25T05:39:04.306Z,20.80
2018-05-25T05:41:33.564Z,20.70
2018-05-25T05:44:13.252Z,20.70
2018-05-25T05:46:42.736Z,20.60
2018-05-25T05:49:11.046Z,20.60
2018-05-25T05:51:39.393Z,20.60
2018-05-25T05:54:07.658Z,20.50
2018-05-25T05:56:36.091Z,20.60
2018-05-25T05:59:04.416Z,20.60
2018-05-25T06:01:32.890Z,20.70
2018-05-25T06:04:01.324Z,20.70
2018-05-25T06:06:29.695Z,20.80
2018-05-25T06:08:57.963Z,20.90
2018-05-25T06:11:26.359Z,20.90
2018-05-25T06:13:54.735Z,20.90
2018-05-25T06:16:28.125Z,21.00
2018-05-25T06:19:06.465Z,21.00
2018-05-25T06:24:39.908Z,21.20
2018-05-25T06:27:22.711Z,21.20
2018-05-25T06:33:03.301Z,21.30
2018-05-25T06:35:50.814Z,21.40
2018-05-25T06:41:23.996Z,21.50
2018-05-25T06:43:52.414Z,21.60
2018-05-25T06:46:20.883Z,21.70
2018-05-25T06:48:49.179Z,21.80
2018-05-25T06:51:17.471Z,21.90
2018-05-25T06:53:45.755Z,22.00
2018-05-25T06:56:14.042Z,22.10
2018-05-25T06:58:42.352Z,22.20
2018-05-25T07:01:16.287Z,22.30
2018-05-25T07:03:44.570Z,22.40
2018-05-25T07:06:15.335Z,22.60
2018-05-25T07:12:15.908Z,22.80
2018-05-25T07:14:56.522Z,22.90
2018-05-25T07:17:25.242Z,23.00
2018-05-25T07:19:54.244Z,23.10
2018-05-25T07:22:23.237Z,23.20
2018-05-25T07:24:51.526Z,23.30
2018-05-25T07:27:20.038Z,23.40
2018-05-25T07:29:52.719Z,23.50
2018-05-25T07:32:21.057Z,23.60
2018-05-25T07:34:50.666Z,23.70
2018-05-25T07:40:49.239Z,24.30
2018-05-25T07:43:27.751Z,24.20
2018-05-25T07:45:56.110Z,24.40
2018-05-25T07:48:26.022Z,24.50
2018-05-25T07:50:54.478Z,24.60
2018-05-25T07:53:23.570Z,24.90
2018-05-25T07:55:51.841Z,24.90
2018-05-25T07:58:20.133Z,25.10
2018-05-25T08:00:48.432Z,25.20
2018-05-25T08:03:16.701Z,25.30
2018-05-25T08:05:45.051Z,25.40
2018-05-25T08:08:13.679Z,25.40
2018-05-25T08:10:42.253Z,25.50
2018-05-25T08:13:17.281Z,25.50
2018-05-25T08:15:47.510Z,25.50
2018-05-25T08:18:22.059Z,25.60
2018-05-25T08:20:50.534Z,25.60
2018-05-25T08:23:18.863Z,25.60
2018-05-25T08:25:47.877Z,25.90
2018-05-25T08:28:16.180Z,25.90
2018-05-25T08:30:44.640Z,25.90
2018-05-25T08:33:13.288Z,26.00
2018-05-25T08:35:41.549Z,26.10
2018-05-25T08:38:10.946Z,26.30
2018-05-25T08:40:39.365Z,26.50
2018-05-25T08:43:07.643Z,26.60
2018-05-25T08:45:37.262Z,26.90
2018-05-25T08:48:05.555Z,26.90
2018-05-25T08:50:35.406Z,26.90
2018-05-25T08:53:04.377Z,26.90
2018-05-25T08:55:32.667Z,26.80
2018-05-25T08:58:02.539Z,26.80
2018-05-25T09:00:31.594Z,26.90
2018-05-25T09:03:00.455Z,26.90
2018-05-25T09:05:28.938Z,27.00
2018-05-25T09:08:12.720Z,27.00
2018-05-25T09:10:41.661Z,27.10
2018-05-25T09:13:11.164Z,27.10
2018-05-25T09:15:39.496Z,27.10
2018-05-25T09:18:07.807Z,27.10
2018-05-25T09:20:36.917Z,27.00
2018-05-25T09:23:05.214Z,27.00
2018-05-25T09:25:33.566Z,27.10
2018-05-25T09:28:03.516Z,27.10
2018-05-25T09:30:33.071Z,27.20
2018-05-25T09:33:03.138Z,27.30
2018-05-25T09:35:31.445Z,27.30
2018-05-25T09:38:00.596Z,27.40
2018-05-25T09:40:28.870Z,27.40
2018-05-25T09:42:57.130Z,27.50
2018-05-25T09:45:25.446Z,27.60
2018-05-25T09:47:53.718Z,27.70
2018-05-25T09:50:22.589Z,27.70
2018-05-25T09:53:01.554Z,27.80
2018-05-25T09:58:31.403Z,27.90
2018-05-25T10:04:35.101Z,28.00
2018-05-25T10:09:45.126Z,28.10
2018-05-25T10:12:13.429Z,28.00
2018-05-25T10:14:47.148Z,28.00
2018-05-25T10:17:18.406Z,28.00
2018-05-25T10:19:46.726Z,28.20
2018-05-25T10:22:14.986Z,28.30
2018-05-25T10:24:44.298Z,28.40
2018-05-25T10:27:12.568Z,28.40
2018-05-25T10:29:41.107Z,28.50
2018-05-25T10:32:11.132Z,28.60
2018-05-25T10:34:39.451Z,28.60
2018-05-25T10:37:07.847Z,28.70
2018-05-25T10:39:37.062Z,28.80
2018-05-25T10:42:05.324Z,28.80
2018-05-25T10:44:33.822Z,28.80
2018-05-25T10:47:02.434Z,28.90
2018-05-25T10:49:31.444Z,29.00
2018-05-25T10:52:00.498Z,29.10
2018-05-25T10:54:29.442Z,29.10
2018-05-25T10:56:58.874Z,29.30
2018-05-25T11:02:38.290Z,29.40
2018-05-25T11:05:07.310Z,29.50
2018-05-25T11:07:36.294Z,29.50
2018-05-25T11:10:14.314Z,29.50
2018-05-25T11:12:43.890Z,29.70
2018-05-25T11:18:02.796Z,29.70
2018-05-25T11:20:31.049Z,29.70
2018-05-25T11:22:59.296Z,29.70
2018-05-25T11:25:27.586Z,29.90
2018-05-25T11:27:55.880Z,30.20
2018-05-25T11:30:25.074Z,31.10
2018-05-25T11:32:53.531Z,31.10
2018-05-25T11:35:21.993Z,31.40
2018-05-25T11:37:50.407Z,31.50
2018-05-25T11:40:18.797Z,31.70
2018-05-25T11:42:48.691Z,31.70
2018-05-25T11:45:21.170Z,31.30
2018-05-25T11:47:49.675Z,31.20
2018-05-25T11:50:19.152Z,32.10
2018-05-25T11:52:47.533Z,32.00
2018-05-25T11:55:16.052Z,33.00
2018-05-25T11:57:45.154Z,34.10
2018-05-25T12:00:13.535Z,35.10
2018-05-25T12:02:41.984Z,36.00
2018-05-25T12:05:10.485Z,37.00
2018-05-25T12:07:38.944Z,37.50
2018-05-25T12:10:08.108Z,36.60
2018-05-25T12:12:36.586Z,36.50
2018-05-25T12:15:07.226Z,37.00
2018-05-25T12:17:36.575Z,37.80
2018-05-25T12:20:05.616Z,38.80
2018-05-25T12:22:34.536Z,39.50
2018-05-25T12:25:03.375Z,40.00
2018-05-25T12:27:32.082Z,40.50
2018-05-25T12:30:00.737Z,41.00
2018-05-25T12:32:29.422Z,41.40
2018-05-25T12:34:58.478Z,42.00
2018-05-25T12:37:27.768Z,42.10
2018-05-25T12:39:57.146Z,41.90
2018-05-25T12:42:25.667Z,41.30
2018-05-25T12:45:06.598Z,40.20
2018-05-25T12:47:34.914Z,38.80
2018-05-25T12:50:03.312Z,37.40
2018-05-25T12:52:31.936Z,36.30
2018-05-25T12:55:01.266Z,35.80
2018-05-25T12:57:30.355Z,36.10
2018-05-25T12:59:59.979Z,36.80
2018-05-25T13:02:28.971Z,37.90
2018-05-25T13:05:00.270Z,39.50
2018-05-25T13:07:30.634Z,39.40
2018-05-25T13:10:04.117Z,40.10
2018-05-25T13:12:36.900Z,40.60
2018-05-25T13:15:06.194Z,41.10
2018-05-25T13:17:38.058Z,41.70
2018-05-25T13:20:11.193Z,40.90
2018-05-25T13:22:40.606Z,40.90
2018-05-25T13:25:10.984Z,39.70
2018-05-25T13:27:45.953Z,38.50
2018-05-25T13:33:28.955Z,37.70
2018-05-25T13:39:17.103Z,39.50
2018-05-25T13:41:53.592Z,40.70
2018-05-25T13:44:25.948Z,40.40
2018-05-25T13:46:54.431Z,40.90
2018-05-25T13:49:22.733Z,40.40
2018-05-25T13:58:13.744Z,41.00
2018-05-25T14:00:43.958Z,41.60
2018-05-25T14:03:16.978Z,42.20
2018-05-25T14:05:45.378Z,42.30
2018-05-25T14:08:13.823Z,42.30
2018-05-25T14:13:42.094Z,42.10
2018-05-25T14:16:10.460Z,41.30
2018-05-25T14:18:43.155Z,41.00
2018-05-25T14:21:11.490Z,41.00
2018-05-25T14:23:45.813Z,41.40
2018-05-25T14:26:14.858Z,41.30
2018-05-25T14:28:44.091Z,41.50
2018-05-25T14:31:12.427Z,41.70
2018-05-25T14:33:53.905Z,42.00
2018-05-25T14:36:29.414Z,42.00
2018-05-25T14:39:08.299Z,42.10
2018-05-25T14:41:37.982Z,42.20
2018-05-25T14:44:06.704Z,42.30
2018-05-25T14:46:35.037Z,42.10
2018-05-25T14:51:55.947Z,40.80
2018-05-25T14:54:25.078Z,40.80
2018-05-25T14:57:01.419Z,40.80
2018-05-25T14:59:37.830Z,40.70
2018-05-25T15:02:08.070Z,40.60
2018-05-25T15:04:37.646Z,40.90
2018-05-25T15:07:06.918Z,41.10
2018-05-25T15:09:36.578Z,41.50
2018-05-25T15:12:05.142Z,41.50
2018-05-25T15:14:46.639Z,41.70
2018-05-25T15:17:15.546Z,41.70
2018-05-25T15:19:49.452Z,41.60
2018-05-25T15:22:19.126Z,41.40
2018-05-25T15:24:53.493Z,41.30
2018-05-25T15:27:22.051Z,41.10
2018-05-25T15:29:55.136Z,40.70
2018-05-25T15:32:24.278Z,40.50
2018-05-25T15:34:53.716Z,40.40
2018-05-25T15:37:27.130Z,40.10
2018-05-25T15:39:55.562Z,39.80
2018-05-25T15:42:23.871Z,39.90
2018-05-25T15:44:53.886Z,40.10
2018-05-25T15:47:22.215Z,40.10
2018-05-25T15:49:50.494Z,40.10
2018-05-25T15:52:19.550Z,40.00
2018-05-25T15:54:48.561Z,40.00
2018-05-25T15:57:33.816Z,39.90
2018-05-25T16:00:03.061Z,39.90
2018-05-25T16:02:31.394Z,39.40
2018-05-25T16:05:00.649Z,39.00
2018-05-25T16:07:28.894Z,38.70
2018-05-25T16:09:58.697Z,38.50
2018-05-25T16:12:26.967Z,38.40
2018-05-25T16:14:56.048Z,38.10
2018-05-25T16:17:26.551Z,38.40
2018-05-25T16:19:56.775Z,38.40
2018-05-25T16:22:25.108Z,38.10
2018-05-25T16:24:54.240Z,37.10
2018-05-25T16:27:24.502Z,37.00
2018-05-25T16:29:52.786Z,36.50
2018-05-25T16:32:21.187Z,35.70
2018-05-25T16:34:49.512Z,34.90
2018-05-25T16:37:17.923Z,34.20
2018-05-25T16:39:46.283Z,33.80
2018-05-25T16:42:14.599Z,33.50
2018-05-25T16:44:49.082Z,33.20
2018-05-25T16:47:17.393Z,33.20
2018-05-25T16:50:04.420Z,33.10
2018-05-25T16:52:32.703Z,32.80
2018-05-25T16:55:00.981Z,32.40
2018-05-25T16:57:29.247Z,32.10
2018-05-25T16:59:58.395Z,31.70
2018-05-25T17:02:27.556Z,31.30
2018-05-25T17:04:56.647Z,30.80
2018-05-25T17:07:24.986Z,30.70
2018-05-25T17:09:53.304Z,30.50
2018-05-25T17:12:22.351Z,30.20
2018-05-25T17:14:51.124Z,30.20
2018-05-25T17:17:19.423Z,30.10
2018-05-25T17:19:47.742Z,30.10
2018-05-25T17:22:16.867Z,30.10
2018-05-25T17:24:47.079Z,30.00
2018-05-25T17:27:16.145Z,30.00
2018-05-25T17:29:44.831Z,30.00
2018-05-25T17:32:14.046Z,29.90
2018-05-25T17:34:45.961Z,29.70
2018-05-25T17:37:15.094Z,29.60
2018-05-25T17:39:43.359Z,29.60
2018-05-25T17:42:11.823Z,29.50
2018-05-25T17:44:40.334Z,29.30
2018-05-25T17:47:08.762Z,29.10
2018-05-25T17:49:37.035Z,29.00
2018-05-25T17:52:06.692Z,28.90
2018-05-25T17:54:35.976Z,28.70
2018-05-25T17:57:12.745Z,28.60
2018-05-25T17:59:54.692Z,28.40
2018-05-25T18:05:43.283Z,28.10
2018-05-25T18:08:17.436Z,27.90
2018-05-25T18:10:49.388Z,27.80
2018-05-25T18:16:01.265Z,27.60
2018-05-25T18:18:30.776Z,27.40
2018-05-25T18:21:09.978Z,27.30
2018-05-25T18:23:41.930Z,27.20
2018-05-25T18:26:13.407Z,27.00
2018-05-25T18:31:32.386Z,26.90
2018-05-25T18:34:03.967Z,26.60
2018-05-25T18:36:41.975Z,26.60
2018-05-25T18:39:10.284Z,26.60
2018-05-25T18:41:38.587Z,26.50
2018-05-25T18:44:12.652Z,26.30
2018-05-25T18:46:42.507Z,26.20
2018-05-25T18:49:17.506Z,26.10
2018-05-25T18:52:07.440Z,25.90
2018-05-25T18:54:35.806Z,25.80
2018-05-25T18:57:04.098Z,25.70
2018-05-25T18:59:32.599Z,25.60
2018-05-25T19:02:00.997Z,25.50
2018-05-25T19:04:29.548Z,25.40
2018-05-25T19:06:58.520Z,25.30
2018-05-25T19:09:27.037Z,25.20
2018-05-25T19:11:55.522Z,25.00
2018-05-25T19:14:23.835Z,24.90
2018-05-25T19:16:52.118Z,24.90
2018-05-25T19:19:20.399Z,24.80
2018-05-25T19:21:48.789Z,24.60
2018-05-25T19:24:17.038Z,24.60
2018-05-25T19:26:46.273Z,24.40
2018-05-25T19:29:14.513Z,24.40
2018-05-25T19:31:42.783Z,24.30
2018-05-25T19:34:11.263Z,24.20
2018-05-25T19:36:39.657Z,24.20
2018-05-25T19:39:08.097Z,24.10
2018-05-25T19:41:36.569Z,24.00
2018-05-25T19:44:05.354Z,23.90
2018-05-25T19:46:33.791Z,23.90
2018-05-25T19:49:02.145Z,23.80
2018-05-25T19:51:30.511Z,23.70
2018-05-25T19:53:58.791Z,23.70
2018-05-25T19:56:27.779Z,23.60
2018-05-25T19:58:56.865Z,23.60
2018-05-25T20:01:26.744Z,23.40
2018-05-25T20:03:56.166Z,23.30
2018-05-25T20:06:26.631Z,23.30
2018-05-25T20:08:57.262Z,23.20
2018-05-25T20:11:26.628Z,23.10
2018-05-25T20:13:55.613Z,23.10
2018-05-25T20:16:24.911Z,23.00
2018-05-25T20:18:54.064Z,23.00
2018-05-25T20:21:24.054Z,22.80
2018-05-25T20:23:52.542Z,22.80
2018-05-25T20:26:22.820Z,22.80
2018-05-25T20:28:51.898Z,22.70
2018-05-25T20:31:20.189Z,22.60
2018-05-25T20:33:49.226Z,22.60
2018-05-25T20:36:17.526Z,22.50
2018-05-25T20:38:46.188Z,22.50
2018-05-25T20:41:14.770Z,22.50
2018-05-25T20:43:44.448Z,22.40
2018-05-25T20:46:12.806Z,22.40
2018-05-25T20:48:41.072Z,22.30
2018-05-25T20:51:09.365Z,22.30
2018-05-25T20:53:37.775Z,22.20
2018-05-25T20:56:06.094Z,22.10
2018-05-25T20:58:34.436Z,22.10
2018-05-25T21:01:03.523Z,22.00
2018-05-25T21:03:32.567Z,22.00
2018-05-25T21:06:00.877Z,21.80
2018-05-25T21:08:29.440Z,22.00
2018-05-25T21:10:57.737Z,22.00
2018-05-25T21:13:26.770Z,22.00
2018-05-25T21:15:55.918Z,22.00
2018-05-25T21:18:25.234Z,22.00
2018-05-25T21:20:55.767Z,22.00
2018-05-25T21:23:24.125Z,21.90
2018-05-25T21:25:52.381Z,21.90
2018-05-25T21:28:22.721Z,21.80
2018-05-25T21:30:51.278Z,21.70
2018-05-25T21:33:20.490Z,21.70
2018-05-25T21:36:01.631Z,21.60
2018-05-25T21:38:51.404Z,21.50
2018-05-25T21:41:34.947Z,21.50
2018-05-25T21:44:03.259Z,21.40
2018-05-25T21:52:27.413Z,21.20
2018-05-25T21:57:55.786Z,21.20
2018-05-25T22:00:24.717Z,21.10
2018-05-25T22:02:53.726Z,21.10
2018-05-25T22:05:22.897Z,21.00
2018-05-25T22:07:51.395Z,20.90
2018-05-25T22:10:19.673Z,20.90
2018-05-25T22:12:47.950Z,20.80
2018-05-25T22:15:16.257Z,20.80
2018-05-25T22:17:45.303Z,20.70
2018-05-25T22:20:13.689Z,20.70
2018-05-25T22:22:46.791Z,20.70
2018-05-25T22:25:15.819Z,20.60
2018-05-25T22:27:45.909Z,20.50
2018-05-25T22:30:14.225Z,20.50
2018-05-25T22:32:43.274Z,20.40
2018-05-25T22:35:12.730Z,20.40
2018-05-25T22:37:41.634Z,20.30
2018-05-25T22:40:10.084Z,20.30
2018-05-25T22:42:50.128Z,20.20
2018-05-25T22:45:36.357Z,20.20
2018-05-25T22:48:22.404Z,20.20
2018-05-25T22:51:08.494Z,20.10
2018-05-25T22:53:48.477Z,20.00
2018-05-25T22:56:17.527Z,19.90
2018-05-25T22:58:45.955Z,19.90
2018-05-25T23:01:28.714Z,19.80
2018-05-25T23:03:57.049Z,19.70
2018-05-25T23:06:31.883Z,19.70
2018-05-25T23:09:00.180Z,19.50
2018-05-25T23:11:28.490Z,19.40
2018-05-25T23:13:56.812Z,19.40
2018-05-25T23:16:25.139Z,19.30
2018-05-25T23:19:13.705Z,19.30
2018-05-25T23:21:43.998Z,19.30
2018-05-25T23:24:13.154Z,19.20
2018-05-25T23:27:02.340Z,19.20
2018-05-25T23:29:30.642Z,19.20
2018-05-25T23:31:59.695Z,19.20
2018-05-25T23:34:36.078Z,19.20
2018-05-25T23:37:04.393Z,19.10
2018-05-25T23:39:32.753Z,19.10
2018-05-25T23:42:01.837Z,19.00
2018-05-25T23:44:30.164Z,19.00
2018-05-25T23:46:59.237Z,19.00
2018-05-25T23:49:27.575Z,19.00
2018-05-25T23:51:56.896Z,19.00
2018-05-25T23:54:25.194Z,18.90
2018-05-25T23:56:54.287Z,18.80
2018-05-25T23:59:23.342Z,18.80
